Aviation Digital Data Service (ADDS)

Output produced by METARs form (2203 UTC 25 July 2016)
found at http://aviationweather.gov/adds/metars/
 
KJXN 251738Z 2518/2618 30009KT P6SM SCT040 
     FM260900 00000KT 4SM BR SKC 
     FM261300 21003KT P6SM SKC